Greenbrier Valley Airport Lewisburg US
ICAO: KLWB
IATA: LWB
Category: Medium
Scheduled Services: No

Elevation: 2302 ft
TransAlt. 18000 ft.

Airport Communications:
AWOS 3:121.4
CLNC DEL:120.85
WASHINGTON CNTR:134.4
CTAF:118.9
GND:121.9
LEWISBURG TWR:118.9
UNICOM:122.95

KLWB Zoom In..

If Map Doesn't Load, Click Here

Runways:

(A) RW 04 length 7003 ft width 150 ft
ILS 110.35 / hdg 43

(B) RW 22 length 7003 ft width 150 ft
---- / hdg 223

Location; KLWB
Day. 26 / Time. 10.35 Zulu
* Altimeter: 30.11
* Temperature: 17° c. 62.6°f.
* Wind from: 000° Speed 00 kn.
Dewpoint: 17° c.
Visibility: 7 Statute Miles.
Clouds: Scattered 100 ft.
Clouds: Overcast 3400 ft.

KLWB 261035Z AUTO 00000KT 7SM SCT001 OVC034 17/17 A3011 RMK AO2 LTG DSNT SW T01680166


Wind - Calm.

 
 
jpsmedia.com for Web Design worldairports.se 2018   terms of use